sensor_id;sensor_type;location;lat;lon;timestamp;pressure;altitude;pressure_sealevel;temperature;humidity
2268;BME280;11052;43.338;25.502;2023-01-26T00:00:52;101719.53;;;1.46;100.00
2268;BME280;11052;43.338;25.502;2023-01-26T00:03:20;101715.22;;;1.45;100.00
2268;BME280;11052;43.338;25.502;2023-01-26T00:05:47;101723.81;;;1.47;100.00
2268;BME280;11052;43.338;25.502;2023-01-26T00:08:14;101718.69;;;1.47;100.00
2268;BME280;11052;43.338;25.502;2023-01-26T00:10:43;101715.28;;;1.47;100.00
2268;BME280;11052;43.338;25.502;2023-01-26T00:13:16;101722.16;;;1.49;100.00
2268;BME280;11052;43.338;25.502;2023-01-26T00:15:43;101720.38;;;1.47;100.00
2268;BME280;11052;43.338;25.502;2023-01-26T00:18:10;101715.41;;;1.51;100.00
2268;BME280;11052;43.338;25.502;2023-01-26T00:20:38;101714.31;;;1.43;100.00
2268;BME280;11052;43.338;25.502;2023-01-26T00:23:07;101707.38;;;1.39;100.00
2268;BME280;11052;43.338;25.502;2023-01-26T00:25:36;101704.91;;;1.42;100.00
2268;BME280;11052;43.338;25.502;2023-01-26T00:28:06;101709.13;;;1.40;100.00
2268;BME280;11052;43.338;25.502;2023-01-26T00:30:33;101709.25;;;1.45;100.00
2268;BME280;11052;43.338;25.502;2023-01-26T00:33:00;101714.19;;;1.39;100.00
2268;BME280;11052;43.338;25.502;2023-01-26T00:35:27;101712.03;;;1.52;100.00
2268;BME280;11052;43.338;25.502;2023-01-26T00:37:54;101712.63;;;1.44;100.00
2268;BME280;11052;43.338;25.502;2023-01-26T00:40:21;101708.38;;;1.44;100.00
2268;BME280;11052;43.338;25.502;2023-01-26T00:42:48;101708.16;;;1.37;100.00
2268;BME280;11052;43.338;25.502;2023-01-26T00:45:19;101700.31;;;1.30;100.00
2268;BME280;11052;43.338;25.502;2023-01-26T00:47:46;101700.41;;;1.34;100.00
2268;BME280;11052;43.338;25.502;2023-01-26T00:50:13;101695.66;;;1.46;100.00
2268;BME280;11052;43.338;25.502;2023-01-26T00:52:41;101693.69;;;1.37;100.00
2268;BME280;11052;43.338;25.502;2023-01-26T00:55:08;101689.22;;;1.30;100.00
2268;BME280;11052;43.338;25.502;2023-01-26T00:57:35;101684.22;;;1.33;100.00
2268;BME280;11052;43.338;25.502;2023-01-26T01:00:03;101677.31;;;1.30;100.00
2268;BME280;11052;43.338;25.502;2023-01-26T01:02:32;101671.03;;;1.19;100.00
2268;BME280;11052;43.338;25.502;2023-01-26T01:04:59;101663.59;;;1.27;100.00
2268;BME280;11052;43.338;25.502;2023-01-26T01:07:26;101657.50;;;1.22;100.00
2268;BME280;11052;43.338;25.502;2023-01-26T01:09:53;101646.41;;;1.21;100.00
2268;BME280;11052;43.338;25.502;2023-01-26T01:12:20;101647.28;;;1.22;100.00
2268;BME280;11052;43.338;25.502;2023-01-26T01:14:47;101647.94;;;1.16;100.00
2268;BME280;11052;43.338;25.502;2023-01-26T01:17:14;101634.38;;;1.17;100.00
2268;BME280;11052;43.338;25.502;2023-01-26T01:19:43;101630.84;;;1.14;100.00
2268;BME280;11052;43.338;25.502;2023-01-26T01:22:10;101628.34;;;1.15;100.00
2268;BME280;11052;43.338;25.502;2023-01-26T01:24:37;101625.94;;;1.20;100.00
2268;BME280;11052;43.338;25.502;2023-01-26T01:27:04;101625.63;;;1.09;100.00
2268;BME280;11052;43.338;25.502;2023-01-26T01:29:31;101632.50;;;1.12;100.00
2268;BME280;11052;43.338;25.502;2023-01-26T01:31:58;101623.84;;;1.07;100.00
2268;BME280;11052;43.338;25.502;2023-01-26T01:34:25;101619.72;;;1.12;100.00
2268;BME280;11052;43.338;25.502;2023-01-26T01:36:54;101621.41;;;1.11;100.00
2268;BME280;11052;43.338;25.502;2023-01-26T01:39:21;101619.69;;;1.10;100.00
2268;BME280;11052;43.338;25.502;2023-01-26T01:41:48;101629.91;;;1.10;100.00
2268;BME280;11052;43.338;25.502;2023-01-26T01:44:18;101628.16;;;1.09;100.00
2268;BME280;11052;43.338;25.502;2023-01-26T01:46:51;101620.47;;;1.08;100.00
2268;BME280;11052;43.338;25.502;2023-01-26T01:49:22;101623.88;;;1.08;100.00
2268;BME280;11052;43.338;25.502;2023-01-26T01:51:55;101635.09;;;1.13;100.00
2268;BME280;11052;43.338;25.502;2023-01-26T01:54:29;101631.53;;;1.08;100.00
2268;BME280;11052;43.338;25.502;2023-01-26T01:57:01;101635.81;;;1.09;100.00
2268;BME280;11052;43.338;25.502;2023-01-26T01:59:30;101637.59;;;1.12;100.00
2268;BME280;11052;43.338;25.502;2023-01-26T02:01:58;101640.88;;;1.08;100.00
2268;BME280;11052;43.338;25.502;2023-01-26T02:04:25;101620.56;;;1.11;100.00
2268;BME280;11052;43.338;25.502;2023-01-26T02:06:56;101611.94;;;1.07;100.00
2268;BME280;11052;43.338;25.502;2023-01-26T02:09:29;101613.56;;;1.05;100.00
2268;BME280;11052;43.338;25.502;2023-01-26T02:12:15;101608.50;;;1.07;100.00
2268;BME280;11052;43.338;25.502;2023-01-26T02:14:44;101601.81;;;1.10;100.00
2268;BME280;11052;43.338;25.502;2023-01-26T02:17:11;101606.81;;;1.07;100.00
2268;BME280;11052;43.338;25.502;2023-01-26T02:19:43;101613.72;;;1.10;100.00
2268;BME280;11052;43.338;25.502;2023-01-26T02:22:21;101612.06;;;1.12;100.00
2268;BME280;11052;43.338;25.502;2023-01-26T02:24:52;101605.38;;;1.15;100.00
2268;BME280;11052;43.338;25.502;2023-01-26T02:27:23;101596.75;;;1.12;100.00
2268;BME280;11052;43.338;25.502;2023-01-26T02:29:50;101597.38;;;1.05;100.00
2268;BME280;11052;43.338;25.502;2023-01-26T02:32:18;101592.28;;;1.05;100.00
2268;BME280;11052;43.338;25.502;2023-01-26T02:34:45;101586.72;;;1.18;100.00
2268;BME280;11052;43.338;25.502;2023-01-26T02:37:13;101578.78;;;1.09;100.00
2268;BME280;11052;43.338;25.502;2023-01-26T02:39:43;101573.41;;;0.99;100.00
2268;BME280;11052;43.338;25.502;2023-01-26T02:42:14;101578.25;;;0.90;100.00
2268;BME280;11052;43.338;25.502;2023-01-26T02:45:00;101574.72;;;0.85;100.00
2268;BME280;11052;43.338;25.502;2023-01-26T02:47:27;101575.44;;;0.81;100.00
2268;BME280;11052;43.338;25.502;2023-01-26T02:49:55;101566.31;;;0.89;100.00
2268;BME280;11052;43.338;25.502;2023-01-26T02:52:24;101571.44;;;0.91;100.00
2268;BME280;11052;43.338;25.502;2023-01-26T02:54:51;101571.34;;;0.86;100.00
2268;BME280;11052;43.338;25.502;2023-01-26T02:57:36;101569.94;;;0.97;100.00
2268;BME280;11052;43.338;25.502;2023-01-26T03:00:07;101559.78;;;0.99;100.00
2268;BME280;11052;43.338;25.502;2023-01-26T03:02:34;101556.13;;;0.91;100.00
2268;BME280;11052;43.338;25.502;2023-01-26T03:05:02;101556.22;;;0.94;100.00
2268;BME280;11052;43.338;25.502;2023-01-26T03:07:30;101549.47;;;0.96;100.00
2268;BME280;11052;43.338;25.502;2023-01-26T03:09:57;101534.75;;;0.87;100.00
2268;BME280;11052;43.338;25.502;2023-01-26T03:12:24;101533.94;;;0.88;100.00
2268;BME280;11052;43.338;25.502;2023-01-26T03:14:51;101527.78;;;0.80;100.00
2268;BME280;11052;43.338;25.502;2023-01-26T03:17:44;101523.72;;;0.88;100.00
2268;BME280;11052;43.338;25.502;2023-01-26T03:20:11;101523.69;;;0.87;100.00
2268;BME280;11052;43.338;25.502;2023-01-26T03:22:56;101519.44;;;0.86;100.00
2268;BME280;11052;43.338;25.502;2023-01-26T03:25:40;101511.88;;;0.90;100.00
2268;BME280;11052;43.338;25.502;2023-01-26T03:28:25;101512.97;;;0.98;100.00
2268;BME280;11052;43.338;25.502;2023-01-26T03:30:54;101514.59;;;0.96;100.00
2268;BME280;11052;43.338;25.502;2023-01-26T03:33:23;101509.41;;;0.93;100.00
2268;BME280;11052;43.338;25.502;2023-01-26T03:35:52;101509.31;;;0.90;100.00
2268;BME280;11052;43.338;25.502;2023-01-26T03:38:19;101505.88;;;0.88;100.00
2268;BME280;11052;43.338;25.502;2023-01-26T03:40:46;101500.13;;;0.95;100.00
2268;BME280;11052;43.338;25.502;2023-01-26T03:43:33;101495.88;;;0.96;100.00
2268;BME280;11052;43.338;25.502;2023-01-26T03:46:17;101482.91;;;0.88;100.00
2268;BME280;11052;43.338;25.502;2023-01-26T03:49:03;101491.50;;;0.92;100.00
2268;BME280;11052;43.338;25.502;2023-01-26T03:51:47;101482.19;;;0.94;100.00
2268;BME280;11052;43.338;25.502;2023-01-26T03:54:31;101487.22;;;0.91;100.00
2268;BME280;11052;43.338;25.502;2023-01-26T03:57:16;101489.00;;;0.93;100.00
2268;BME280;11052;43.338;25.502;2023-01-26T03:59:43;101493.31;;;0.96;100.00
2268;BME280;11052;43.338;25.502;2023-01-26T04:02:11;101488.22;;;0.96;100.00
2268;BME280;11052;43.338;25.502;2023-01-26T04:04:57;101493.16;;;0.90;100.00
2268;BME280;11052;43.338;25.502;2023-01-26T04:07:42;101485.41;;;0.85;100.00
2268;BME280;11052;43.338;25.502;2023-01-26T04:10:26;101484.81;;;0.95;100.00
2268;BME280;11052;43.338;25.502;2023-01-26T04:12:53;101487.41;;;0.97;100.00
2268;BME280;11052;43.338;25.502;2023-01-26T04:15:38;101487.56;;;1.03;100.00
2268;BME280;11052;43.338;25.502;2023-01-26T04:18:22;101490.13;;;1.03;100.00
2268;BME280;11052;43.338;25.502;2023-01-26T04:21:08;101489.34;;;1.06;100.00
2268;BME280;11052;43.338;25.502;2023-01-26T04:23:56;101480.78;;;1.04;100.00
2268;BME280;11052;43.338;25.502;2023-01-26T04:26:23;101476.53;;;1.04;100.00
2268;BME280;11052;43.338;25.502;2023-01-26T04:28:50;101469.66;;;1.02;100.00
2268;BME280;11052;43.338;25.502;2023-01-26T04:31:17;101463.81;;;1.06;100.00
2268;BME280;11052;43.338;25.502;2023-01-26T04:33:44;101467.34;;;1.11;100.00
2268;BME280;11052;43.338;25.502;2023-01-26T04:36:13;101469.78;;;1.06;100.00
2268;BME280;11052;43.338;25.502;2023-01-26T04:38:40;101466.31;;;1.04;100.00
2268;BME280;11052;43.338;25.502;2023-01-26T04:41:07;101457.06;;;1.08;100.00
2268;BME280;11052;43.338;25.502;2023-01-26T04:43:34;101452.69;;;1.04;100.00
2268;BME280;11052;43.338;25.502;2023-01-26T04:46:03;101448.50;;;1.06;100.00
2268;BME280;11052;43.338;25.502;2023-01-26T04:48:31;101450.13;;;1.04;100.00
2268;BME280;11052;43.338;25.502;2023-01-26T04:51:00;101450.13;;;1.04;100.00
2268;BME280;11052;43.338;25.502;2023-01-26T04:53:30;101453.75;;;1.12;100.00
2268;BME280;11052;43.338;25.502;2023-01-26T04:55:57;101463.03;;;1.08;100.00
2268;BME280;11052;43.338;25.502;2023-01-26T04:58:25;101457.09;;;1.09;100.00
2268;BME280;11052;43.338;25.502;2023-01-26T05:00:53;101467.28;;;1.08;100.00
2268;BME280;11052;43.338;25.502;2023-01-26T05:03:20;101457.06;;;1.08;100.00
2268;BME280;11052;43.338;25.502;2023-01-26T05:05:48;101452.03;;;1.11;100.00
2268;BME280;11052;43.338;25.502;2023-01-26T05:08:17;101455.78;;;1.23;100.00
2268;BME280;11052;43.338;25.502;2023-01-26T05:10:46;101451.56;;;1.25;100.00
2268;BME280;11052;43.338;25.502;2023-01-26T05:13:13;101449.84;;;1.24;100.00
2268;BME280;11052;43.338;25.502;2023-01-26T05:15:40;101455.81;;;1.25;100.00
2268;BME280;11052;43.338;25.502;2023-01-26T05:18:08;101451.63;;;1.27;100.00
2268;BME280;11052;43.338;25.502;2023-01-26T05:20:36;101454.34;;;1.33;100.00
2268;BME280;11052;43.338;25.502;2023-01-26T05:23:03;101448.94;;;1.22;100.00
2268;BME280;11052;43.338;25.502;2023-01-26T05:25:30;101452.47;;;1.27;100.00
2268;BME280;11052;43.338;25.502;2023-01-26T05:27:59;101442.38;;;1.32;100.00
2268;BME280;11052;43.338;25.502;2023-01-26T05:30:26;101440.88;;;1.40;100.00
2268;BME280;11052;43.338;25.502;2023-01-26T05:32:55;101435.47;;;1.28;100.00
2268;BME280;11052;43.338;25.502;2023-01-26T05:35:25;101427.94;;;1.33;100.00
2268;BME280;11052;43.338;25.502;2023-01-26T05:37:53;101422.00;;;1.34;100.00
2268;BME280;11052;43.338;25.502;2023-01-26T05:40:21;101420.31;;;1.34;100.00
2268;BME280;11052;43.338;25.502;2023-01-26T05:42:49;101427.19;;;1.37;100.00
2268;BME280;11052;43.338;25.502;2023-01-26T05:45:18;101416.91;;;1.35;100.00
2268;BME280;11052;43.338;25.502;2023-01-26T05:47:45;101422.19;;;1.41;100.00
2268;BME280;11052;43.338;25.502;2023-01-26T05:50:14;101418.47;;;1.28;100.00
2268;BME280;11052;43.338;25.502;2023-01-26T05:52:42;101419.41;;;1.32;100.00
2268;BME280;11052;43.338;25.502;2023-01-26T05:55:11;101416.69;;;1.26;100.00
2268;BME280;11052;43.338;25.502;2023-01-26T05:57:38;101405.91;;;1.38;100.00
2268;BME280;11052;43.338;25.502;2023-01-26T06:00:07;101407.69;;;1.40;100.00
2268;BME280;11052;43.338;25.502;2023-01-26T06:02:36;101398.41;;;1.44;100.00
2268;BME280;11052;43.338;25.502;2023-01-26T06:05:04;101397.34;;;1.36;100.00
2268;BME280;11052;43.338;25.502;2023-01-26T06:07:31;101391.56;;;1.43;100.00
2268;BME280;11052;43.338;25.502;2023-01-26T06:09:58;101387.44;;;1.48;100.00
2268;BME280;11052;43.338;25.502;2023-01-26T06:12:26;101378.81;;;1.43;100.00
2268;BME280;11052;43.338;25.502;2023-01-26T06:14:56;101377.97;;;1.44;100.00
2268;BME280;11052;43.338;25.502;2023-01-26T06:17:23;101374.47;;;1.40;100.00
2268;BME280;11052;43.338;25.502;2023-01-26T06:19:52;101383.53;;;1.27;100.00
2268;BME280;11052;43.338;25.502;2023-01-26T06:22:19;101368.94;;;1.23;100.00
2268;BME280;11052;43.338;25.502;2023-01-26T06:24:46;101367.25;;;1.24;100.00
2268;BME280;11052;43.338;25.502;2023-01-26T06:27:14;101366.63;;;1.33;100.00
2268;BME280;11052;43.338;25.502;2023-01-26T06:29:42;101364.06;;;1.33;100.00
2268;BME280;11052;43.338;25.502;2023-01-26T06:32:10;101356.41;;;1.33;100.00
2268;BME280;11052;43.338;25.502;2023-01-26T06:34:37;101357.91;;;1.24;100.00
2268;BME280;11052;43.338;25.502;2023-01-26T06:37:06;101348.75;;;1.33;100.00
2268;BME280;11052;43.338;25.502;2023-01-26T06:39:33;101344.47;;;1.31;100.00
2268;BME280;11052;43.338;25.502;2023-01-26T06:42:00;101343.59;;;1.31;100.00
2268;BME280;11052;43.338;25.502;2023-01-26T06:44:28;101336.31;;;1.46;100.00
2268;BME280;11052;43.338;25.502;2023-01-26T06:46:55;101335.94;;;1.31;100.00
2268;BME280;11052;43.338;25.502;2023-01-26T06:49:22;101330.91;;;1.34;100.00
2268;BME280;11052;43.338;25.502;2023-01-26T06:51:55;101324.97;;;1.35;100.00
2268;BME280;11052;43.338;25.502;2023-01-26T06:54:24;101323.38;;;1.40;100.00
2268;BME280;11052;43.338;25.502;2023-01-26T06:56:51;101320.13;;;1.46;100.00
2268;BME280;11052;43.338;25.502;2023-01-26T06:59:18;101320.16;;;1.47;100.00
2268;BME280;11052;43.338;25.502;2023-01-26T07:01:46;101320.97;;;1.46;100.00
2268;BME280;11052;43.338;25.502;2023-01-26T07:04:14;101325.25;;;1.47;100.00
2268;BME280;11052;43.338;25.502;2023-01-26T07:06:43;101327.06;;;1.51;100.00
2268;BME280;11052;43.338;25.502;2023-01-26T07:09:10;101333.19;;;1.58;100.00
2268;BME280;11052;43.338;25.502;2023-01-26T07:11:38;101335.44;;;1.46;100.00
2268;BME280;11052;43.338;25.502;2023-01-26T07:14:05;101335.47;;;1.47;100.00
2268;BME280;11052;43.338;25.502;2023-01-26T07:16:32;101334.69;;;1.50;100.00
2268;BME280;11052;43.338;25.502;2023-01-26T07:19:00;101328.09;;;1.59;100.00
2268;BME280;11052;43.338;25.502;2023-01-26T07:21:27;101333.28;;;1.62;100.00
2268;BME280;11052;43.338;25.502;2023-01-26T07:23:54;101324.13;;;1.72;100.00
2268;BME280;11052;43.338;25.502;2023-01-26T07:26:22;101325.88;;;1.75;100.00
2268;BME280;11052;43.338;25.502;2023-01-26T07:28:51;101323.50;;;1.84;100.00
2268;BME280;11052;43.338;25.502;2023-01-26T07:31:18;101318.56;;;1.91;100.00
2268;BME280;11052;43.338;25.502;2023-01-26T07:33:45;101311.00;;;1.96;100.00
2268;BME280;11052;43.338;25.502;2023-01-26T07:36:12;101309.66;;;2.13;100.00
2268;BME280;11052;43.338;25.502;2023-01-26T07:38:39;101297.06;;;2.24;100.00
2268;BME280;11052;43.338;25.502;2023-01-26T07:41:08;101305.19;;;2.47;100.00
2268;BME280;11052;43.338;25.502;2023-01-26T07:43:36;101314.72;;;2.54;100.00
2268;BME280;11052;43.338;25.502;2023-01-26T07:46:06;101311.31;;;2.53;100.00
2268;BME280;11052;43.338;25.502;2023-01-26T07:48:35;101310.44;;;2.53;100.00
2268;BME280;11052;43.338;25.502;2023-01-26T07:51:03;101299.41;;;2.55;100.00
2268;BME280;11052;43.338;25.502;2023-01-26T07:53:31;101293.44;;;2.56;100.00
2268;BME280;11052;43.338;25.502;2023-01-26T07:56:08;101284.78;;;2.50;100.00
2268;BME280;11052;43.338;25.502;2023-01-26T07:58:36;101292.28;;;2.41;100.00
2268;BME280;11052;43.338;25.502;2023-01-26T08:01:06;101290.44;;;2.34;100.00
2268;BME280;11052;43.338;25.502;2023-01-26T08:03:34;101287.06;;;2.35;100.00
2268;BME280;11052;43.338;25.502;2023-01-26T08:06:01;101289.72;;;2.41;100.00
2268;BME280;11052;43.338;25.502;2023-01-26T08:08:28;101275.25;;;2.41;100.00
2268;BME280;11052;43.338;25.502;2023-01-26T08:10:56;101274.56;;;2.50;100.00
2268;BME280;11052;43.338;25.502;2023-01-26T08:13:25;101277.16;;;2.53;100.00
2268;BME280;11052;43.338;25.502;2023-01-26T08:15:52;101270.22;;;2.46;100.00
2268;BME280;11052;43.338;25.502;2023-01-26T08:18:21;101269.56;;;2.57;100.00
2268;BME280;11052;43.338;25.502;2023-01-26T08:20:49;101259.22;;;2.51;100.00
2268;BME280;11052;43.338;25.502;2023-01-26T08:23:16;101262.84;;;2.64;100.00
2268;BME280;11052;43.338;25.502;2023-01-26T08:25:44;101265.41;;;2.64;100.00
2268;BME280;11052;43.338;25.502;2023-01-26T08:28:11;101263.69;;;2.64;100.00
2268;BME280;11052;43.338;25.502;2023-01-26T08:30:39;101252.72;;;2.70;100.00
2268;BME280;11052;43.338;25.502;2023-01-26T08:33:06;101257.00;;;2.71;100.00
2268;BME280;11052;43.338;25.502;2023-01-26T08:35:38;101248.53;;;2.75;100.00
2268;BME280;11052;43.338;25.502;2023-01-26T08:38:05;101246.84;;;2.77;100.00
2268;BME280;11052;43.338;25.502;2023-01-26T08:40:32;101253.41;;;2.61;100.00
2268;BME280;11052;43.338;25.502;2023-01-26T08:43:00;101261.13;;;2.64;100.00
2268;BME280;11052;43.338;25.502;2023-01-26T08:45:28;101260.25;;;2.62;100.00
2268;BME280;11052;43.338;25.502;2023-01-26T08:47:55;101265.47;;;2.69;100.00
2268;BME280;11052;43.338;25.502;2023-01-26T08:50:23;101256.09;;;2.69;100.00
2268;BME280;11052;43.338;25.502;2023-01-26T08:52:54;101256.16;;;2.72;100.00
2268;BME280;11052;43.338;25.502;2023-01-26T08:55:21;101253.50;;;2.66;100.00
2268;BME280;11052;43.338;25.502;2023-01-26T08:57:51;101243.38;;;2.74;100.00
2268;BME280;11052;43.338;25.502;2023-01-26T09:00:21;101244.34;;;2.80;100.00
2268;BME280;11052;43.338;25.502;2023-01-26T09:02:48;101233.09;;;2.71;100.00
2268;BME280;11052;43.338;25.502;2023-01-26T09:05:15;101235.72;;;2.75;100.00
2268;BME280;11052;43.338;25.502;2023-01-26T09:07:42;101228.19;;;2.83;100.00
2268;BME280;11052;43.338;25.502;2023-01-26T09:10:11;101215.53;;;2.92;100.00
2268;BME280;11052;43.338;25.502;2023-01-26T09:12:39;101209.72;;;3.04;100.00
2268;BME280;11052;43.338;25.502;2023-01-26T09:15:07;101205.56;;;3.10;100.00
2268;BME280;11052;43.338;25.502;2023-01-26T09:17:34;101200.59;;;3.21;100.00
2268;BME280;11052;43.338;25.502;2023-01-26T09:20:02;101199.81;;;3.26;100.00
2268;BME280;11052;43.338;25.502;2023-01-26T09:22:29;101194.84;;;3.37;100.00
2268;BME280;11052;43.338;25.502;2023-01-26T09:24:57;101190.66;;;3.44;100.00
2268;BME280;11052;43.338;25.502;2023-01-26T09:27:25;101175.56;;;3.67;100.00
2268;BME280;11052;43.338;25.502;2023-01-26T09:29:53;101176.34;;;3.62;100.00
2268;BME280;11052;43.338;25.502;2023-01-26T09:32:20;101178.81;;;3.55;100.00
2268;BME280;11052;43.338;25.502;2023-01-26T09:34:47;101181.31;;;3.50;100.00
2268;BME280;11052;43.338;25.502;2023-01-26T09:37:15;101179.81;;;3.65;100.00
2268;BME280;11052;43.338;25.502;2023-01-26T09:39:42;101179.00;;;3.70;100.00
2268;BME280;11052;43.338;25.502;2023-01-26T09:42:34;101178.16;;;3.71;100.00
2268;BME280;11052;43.338;25.502;2023-01-26T09:45:20;101169.75;;;3.81;100.00
2268;BME280;11052;43.338;25.502;2023-01-26T09:48:00;101170.75;;;3.95;100.00
2268;BME280;11052;43.338;25.502;2023-01-26T09:50:32;101168.19;;;3.95;100.00
2268;BME280;11052;43.338;25.502;2023-01-26T09:53:04;101168.97;;;3.88;100.00
2268;BME280;11052;43.338;25.502;2023-01-26T09:55:33;101162.97;;;3.88;100.00
2268;BME280;11052;43.338;25.502;2023-01-26T09:58:02;101154.44;;;3.89;100.00
2268;BME280;11052;43.338;25.502;2023-01-26T10:00:33;101154.53;;;3.98;100.00
2268;BME280;11052;43.338;25.502;2023-01-26T10:03:12;101150.38;;;4.09;100.00
2268;BME280;11052;43.338;25.502;2023-01-26T10:05:46;101145.16;;;3.99;100.00
2268;BME280;11052;43.338;25.502;2023-01-26T10:08:17;101147.56;;;3.85;100.00
2268;BME280;11052;43.338;25.502;2023-01-26T10:10:51;101138.97;;;3.81;100.00
2268;BME280;11052;43.338;25.502;2023-01-26T10:13:21;101136.47;;;3.87;100.00
2268;BME280;11052;43.338;25.502;2023-01-26T10:15:51;101132.13;;;3.82;100.00
2268;BME280;11052;43.338;25.502;2023-01-26T10:18:25;101133.06;;;3.87;100.00
2268;BME280;11052;43.338;25.502;2023-01-26T10:20:55;101117.59;;;3.81;100.00
2268;BME280;11052;43.338;25.502;2023-01-26T10:23:27;101118.56;;;3.90;100.00
2268;BME280;11052;43.338;25.502;2023-01-26T10:26:01;101104.81;;;3.85;100.00
2268;BME280;11052;43.338;25.502;2023-01-26T10:28:35;101097.19;;;3.91;100.00
2268;BME280;11052;43.338;25.502;2023-01-26T10:31:03;101085.28;;;3.98;100.00
2268;BME280;11052;43.338;25.502;2023-01-26T10:33:32;101087.06;;;4.04;100.00
2268;BME280;11052;43.338;25.502;2023-01-26T10:36:01;101080.16;;;3.97;100.00
2268;BME280;11052;43.338;25.502;2023-01-26T10:38:40;101074.16;;;3.98;100.00
2268;BME280;11052;43.338;25.502;2023-01-26T10:41:21;101069.97;;;4.07;100.00
2268;BME280;11052;43.338;25.502;2023-01-26T10:43:52;101057.94;;;3.99;100.00
2268;BME280;11052;43.338;25.502;2023-01-26T10:46:25;101052.84;;;4.05;100.00
2268;BME280;11052;43.338;25.502;2023-01-26T10:48:52;101032.53;;;4.31;100.00
2268;BME280;11052;43.338;25.502;2023-01-26T10:51:24;101029.13;;;4.30;100.00
2268;BME280;11052;43.338;25.502;2023-01-26T10:54:13;101022.28;;;4.35;100.00
2268;BME280;11052;43.338;25.502;2023-01-26T10:56:45;101021.47;;;4.41;100.00
2268;BME280;11052;43.338;25.502;2023-01-26T10:59:21;101022.34;;;4.47;100.00
2268;BME280;11052;43.338;25.502;2023-01-26T11:01:52;101014.78;;;4.66;100.00
2268;BME280;11052;43.338;25.502;2023-01-26T11:04:19;101016.47;;;4.64;100.00
2268;BME280;11052;43.338;25.502;2023-01-26T11:06:47;101021.63;;;4.65;100.00
2268;BME280;11052;43.338;25.502;2023-01-26T11:09:19;101008.75;;;4.64;100.00
2268;BME280;11052;43.338;25.502;2023-01-26T11:12:00;101004.47;;;4.59;100.00
2268;BME280;11052;43.338;25.502;2023-01-26T11:14:30;100995.94;;;4.64;100.00
2268;BME280;11052;43.338;25.502;2023-01-26T11:17:06;100996.78;;;4.61;100.00
2268;BME280;11052;43.338;25.502;2023-01-26T11:19:46;101000.13;;;4.51;100.00
2268;BME280;11052;43.338;25.502;2023-01-26T11:22:18;100989.03;;;4.53;100.00
2268;BME280;11052;43.338;25.502;2023-01-26T11:24:55;100986.50;;;4.59;100.00
2268;BME280;11052;43.338;25.502;2023-01-26T11:27:32;100973.63;;;4.53;100.00
2268;BME280;11052;43.338;25.502;2023-01-26T11:30:24;100977.97;;;4.65;100.00
2268;BME280;11052;43.338;25.502;2023-01-26T11:32:59;100970.34;;;4.83;100.00
2268;BME280;11052;43.338;25.502;2023-01-26T11:35:34;100961.81;;;4.87;100.00
2268;BME280;11052;43.338;25.502;2023-01-26T11:38:15;100948.16;;;5.02;100.00
2268;BME280;11052;43.338;25.502;2023-01-26T11:40:53;100954.13;;;4.93;100.00
2268;BME280;11052;43.338;25.502;2023-01-26T11:43:48;100940.38;;;4.85;100.00
2268;BME280;11052;43.338;25.502;2023-01-26T11:46:32;100939.56;;;4.96;100.00
2268;BME280;11052;43.338;25.502;2023-01-26T11:49:09;100935.31;;;5.01;100.00
2268;BME280;11052;43.338;25.502;2023-01-26T11:51:50;100923.31;;;5.06;100.00
2268;BME280;11052;43.338;25.502;2023-01-26T11:54:40;100919.88;;;5.01;100.00
2268;BME280;11052;43.338;25.502;2023-01-26T11:57:19;100918.16;;;4.97;100.00
2268;BME280;11052;43.338;25.502;2023-01-26T11:59:56;100910.44;;;4.95;100.00
2268;BME280;11052;43.338;25.502;2023-01-26T12:02:31;100907.03;;;4.96;100.00
2268;BME280;11052;43.338;25.502;2023-01-26T12:05:02;100903.59;;;4.94;100.00
2268;BME280;11052;43.338;25.502;2023-01-26T12:07:38;100901.88;;;4.90;100.00
2268;BME280;11052;43.338;25.502;2023-01-26T12:10:23;100905.31;;;4.92;100.00
2268;BME280;11052;43.338;25.502;2023-01-26T12:12:56;100888.19;;;4.92;100.00
2268;BME280;11052;43.338;25.502;2023-01-26T12:15:26;100884.75;;;4.97;100.00
2268;BME280;11052;43.338;25.502;2023-01-26T12:18:04;100877.91;;;4.97;100.00
2268;BME280;11052;43.338;25.502;2023-01-26T12:20:38;100880.50;;;5.00;100.00
2268;BME280;11052;43.338;25.502;2023-01-26T12:23:23;100871.94;;;5.00;100.00
2268;BME280;11052;43.338;25.502;2023-01-26T12:25:55;100873.63;;;4.98;100.00
2268;BME280;11052;43.338;25.502;2023-01-26T12:28:27;100879.63;;;4.97;100.00
2268;BME280;11052;43.338;25.502;2023-01-26T12:31:01;100889.03;;;4.91;100.00
2268;BME280;11052;43.338;25.502;2023-01-26T12:33:32;100881.31;;;4.91;100.00
2268;BME280;11052;43.338;25.502;2023-01-26T12:36:10;100883.00;;;4.79;100.00
2268;BME280;11052;43.338;25.502;2023-01-26T12:38:57;100878.72;;;4.73;100.00
2268;BME280;11052;43.338;25.502;2023-01-26T12:41:34;100879.56;;;4.75;100.00
2268;BME280;11052;43.338;25.502;2023-01-26T12:44:14;100877.00;;;4.75;100.00
2268;BME280;11052;43.338;25.502;2023-01-26T12:46:48;100892.38;;;4.69;100.00
2268;BME280;11052;43.338;25.502;2023-01-26T12:49:22;100877.03;;;4.83;100.00
2268;BME280;11052;43.338;25.502;2023-01-26T12:51:55;100879.56;;;4.78;100.00
2268;BME280;11052;43.338;25.502;2023-01-26T12:54:30;100872.69;;;4.70;100.00
2268;BME280;11052;43.338;25.502;2023-01-26T12:57:01;100874.41;;;4.66;100.00
2268;BME280;11052;43.338;25.502;2023-01-26T12:59:33;100876.13;;;4.69;100.00
2268;BME280;11052;43.338;25.502;2023-01-26T13:02:09;100879.47;;;4.51;100.00
2268;BME280;11052;43.338;25.502;2023-01-26T13:04:39;100875.22;;;4.59;100.00
2268;BME280;11052;43.338;25.502;2023-01-26T13:07:26;100871.78;;;4.51;100.00
2268;BME280;11052;43.338;25.502;2023-01-26T13:13:24;100864.09;;;4.58;100.00